Time;durP1;ratioP1;P1;durP2;ratioP2;P2;SDS_P1;SDS_P2;PMS_P1;PMS_P2;Temp;Humidity;BMP_temperature;BMP_pressure;BME280_temperature;BME280_humidity;BME280_pressure;Samples;Min_cycle;Max_cycle;Signal;HPM_P1;HPM_P2
2023/03/20 00:01:28;;;;;;;8.45;4.70;;;7.60;99.90;;;;;;5074340;28;20051;-71
2023/03/20 00:03:56;;;;;;;9.55;5.07;;;7.60;99.90;;;;;;5089635;28;20072;-71
2023/03/20 00:06:23;;;;;;;8.85;5.10;;;7.60;99.90;;;;;;5092949;28;20079;-71
2023/03/20 00:08:52;;;;;;;8.43;5.05;;;7.60;99.90;;;;;;5085782;28;20066;-70
2023/03/20 00:11:32;;;;;;;10.40;5.90;;;7.60;99.90;;;;;;5089817;28;20115;-71
2023/03/20 00:14:06;;;;;;;10.48;5.30;;;7.60;99.90;;;;;;5073297;28;20421;-71
2023/03/20 00:16:38;;;;;;;13.57;5.63;;;7.60;99.90;;;;;;5082756;28;20043;-71
2023/03/20 00:19:05;;;;;;;10.45;5.63;;;7.60;99.90;;;;;;5093270;28;20093;-71
2023/03/20 00:21:31;;;;;;;12.23;5.70;;;7.60;99.90;;;;;;5078029;28;20093;-71
2023/03/20 00:23:57;;;;;;;8.85;5.78;;;7.60;99.90;;;;;;5075393;28;20036;-71
2023/03/20 00:26:27;;;;;;;10.82;5.47;;;7.60;99.90;;;;;;5081995;28;20303;-71
2023/03/20 00:28:53;;;;;;;10.07;5.55;;;7.50;99.90;;;;;;5076878;28;20067;-70
2023/03/20 00:31:26;;;;;;;9.23;5.57;;;7.50;99.90;;;;;;5074998;28;20456;-70
2023/03/20 00:33:53;;;;;;;10.63;5.32;;;7.50;99.90;;;;;;5077621;28;20048;-71
2023/03/20 00:36:19;;;;;;;10.75;5.57;;;7.50;99.90;;;;;;5082283;28;20098;-71
2023/03/20 00:38:45;;;;;;;9.68;5.15;;;7.50;99.90;;;;;;5073844;28;20048;-71
2023/03/20 00:41:40;;;;;;;8.82;5.25;;;7.50;99.90;;;;;;5086426;28;20076;-71
2023/03/20 00:44:26;;;;;;;11.43;5.38;;;7.50;99.90;;;;;;5057009;28;20138;-71
2023/03/20 00:46:55;;;;;;;9.93;5.07;;;7.50;99.90;;;;;;5081655;28;20043;-71
2023/03/20 00:49:32;;;;;;;15.07;5.25;;;7.50;99.90;;;;;;5076138;28;20131;-70
2023/03/20 00:52:00;;;;;;;10.48;5.65;;;7.50;99.90;;;;;;5076760;28;20566;-71
2023/03/20 00:54:26;;;;;;;10.50;5.03;;;7.50;99.90;;;;;;5089391;28;20089;-70
2023/03/20 00:57:01;;;;;;;12.85;4.97;;;7.50;99.90;;;;;;5080023;28;20150;-70
2023/03/20 00:59:32;;;;;;;11.43;5.50;;;7.50;99.90;;;;;;5073181;28;20052;-70
2023/03/20 01:02:00;;;;;;;9.93;5.00;;;7.40;99.90;;;;;;5084755;28;20127;-72
2023/03/20 01:04:33;;;;;;;10.27;5.18;;;7.40;99.90;;;;;;5090749;28;20041;-71
2023/03/20 01:06:58;;;;;;;9.15;4.75;;;7.50;99.90;;;;;;5085265;28;20044;-70
2023/03/20 01:09:24;;;;;;;10.85;5.28;;;7.40;99.90;;;;;;5072212;28;20489;-70
2023/03/20 01:11:49;;;;;;;15.15;4.82;;;7.40;99.90;;;;;;5084003;28;20052;-70
2023/03/20 01:14:16;;;;;;;10.23;5.72;;;7.40;99.90;;;;;;5078797;28;20041;-70
2023/03/20 01:16:42;;;;;;;9.50;5.15;;;7.40;99.90;;;;;;5092003;28;20504;-71
2023/03/20 01:19:13;;;;;;;10.90;5.22;;;7.40;99.90;;;;;;5091090;28;20071;-71
2023/03/20 01:21:39;;;;;;;9.35;5.07;;;7.40;99.90;;;;;;5090377;28;20515;-71
2023/03/20 01:24:05;;;;;;;10.57;5.68;;;7.40;99.90;;;;;;5086727;28;20444;-71
2023/03/20 01:26:36;;;;;;;12.20;4.78;;;7.40;99.90;;;;;;5092251;28;20072;-71
2023/03/20 01:29:03;;;;;;;11.55;5.50;;;7.40;99.90;;;;;;5089316;28;20438;-70
2023/03/20 01:31:29;;;;;;;14.05;5.82;;;7.40;99.90;;;;;;5092575;28;20392;-71
2023/03/20 01:33:55;;;;;;;8.70;5.22;;;7.40;99.90;;;;;;5072565;28;20048;-71
2023/03/20 01:36:22;;;;;;;10.40;5.05;;;7.40;99.90;;;;;;5072417;28;20045;-72
2023/03/20 01:38:56;;;;;;;13.93;5.22;;;7.40;99.90;;;;;;5083560;28;20048;-71
2023/03/20 01:41:24;;;;;;;12.73;5.22;;;7.40;99.90;;;;;;5075817;28;20405;-71
2023/03/20 01:43:50;;;;;;;11.93;5.70;;;7.40;99.90;;;;;;5081593;28;20048;-71
2023/03/20 01:46:21;;;;;;;12.40;5.45;;;7.40;99.90;;;;;;5083678;28;20163;-71
2023/03/20 01:48:50;;;;;;;9.95;5.38;;;7.40;99.90;;;;;;5085277;28;20063;-71
2023/03/20 01:51:21;;;;;;;12.10;5.65;;;7.40;99.90;;;;;;5084102;28;20114;-71
2023/03/20 01:54:09;;;;;;;12.65;6.20;;;7.40;99.90;;;;;;5078435;28;20036;-70
2023/03/20 01:57:03;;;;;;;10.05;5.70;;;7.40;99.90;;;;;;5083232;28;20489;-70
2023/03/20 02:00:03;;;;;;;12.63;5.55;;;7.40;99.90;;;;;;5071863;28;20051;-70
2023/03/20 02:02:30;;;;;;;11.77;5.78;;;7.40;99.90;;;;;;5080040;28;20040;-70
2023/03/20 02:05:02;;;;;;;12.38;6.13;;;7.40;99.90;;;;;;5089826;28;20051;-71
2023/03/20 02:07:29;;;;;;;15.75;6.57;;;7.40;99.90;;;;;;5080163;28;20097;-70
2023/03/20 02:09:55;;;;;;;15.02;7.07;;;7.40;99.90;;;;;;5074904;28;20037;-71
2023/03/20 02:12:21;;;;;;;14.93;7.13;;;7.60;99.90;;;;;;5085581;28;20382;-71
2023/03/20 02:14:47;;;;;;;17.63;7.75;;;7.40;99.90;;;;;;5075755;28;20397;-71
2023/03/20 02:17:14;;;;;;;13.32;6.95;;;7.40;99.90;;;;;;5081797;28;20037;-70
2023/03/20 02:20:30;;;;;;;17.10;7.35;;;8.20;99.90;;;;;;5087378;28;20555;-70
2023/03/20 02:23:09;;;;;;;18.25;7.15;;;7.40;99.90;;;;;;5080692;28;20623;-71
2023/03/20 02:25:43;;;;;;;17.05;7.30;;;7.40;99.90;;;;;;5082857;28;20078;-71
2023/03/20 02:28:25;;;;;;;18.88;8.45;;;7.40;99.90;;;;;;5072772;28;20440;-72
2023/03/20 02:31:00;;;;;;;26.52;8.40;;;7.40;99.90;;;;;;5078878;28;20044;-71
2023/03/20 02:34:05;;;;;;;17.50;7.72;;;7.40;99.90;;;;;;5076179;28;20489;-70
2023/03/20 02:36:59;;;;;;;21.75;8.40;;;7.40;99.90;;;;;;5079119;28;20048;-70
2023/03/20 02:39:31;;;;;;;15.63;7.60;;;7.40;99.90;;;;;;5083349;28;20044;-71
2023/03/20 02:42:11;;;;;;;17.77;8.20;;;7.40;99.90;;;;;;5091018;28;20056;-70
2023/03/20 02:45:03;;;;;;;23.77;8.95;;;7.40;99.90;;;;;;5092669;28;20530;-71
2023/03/20 02:47:40;;;;;;;15.85;7.88;;;7.50;99.90;;;;;;5080975;28;20156;-71
2023/03/20 02:50:15;;;;;;;15.85;8.60;;;7.50;99.90;;;;;;5075064;28;20053;-71
2023/03/20 02:52:45;;;;;;;19.80;8.68;;;7.50;99.90;;;;;;5084226;28;20507;-71
2023/03/20 02:55:39;;;;;;;17.33;8.63;;;7.50;99.90;;;;;;5079065;28;20032;-70
2023/03/20 02:58:25;;;;;;;20.15;8.43;;;7.50;99.90;;;;;;5087962;28;20047;-70
2023/03/20 03:01:02;;;;;;;17.90;9.07;;;7.50;99.90;;;;;;5079553;28;20098;-70
2023/03/20 03:03:45;;;;;;;18.48;8.07;;;7.50;99.90;;;;;;5074400;28;20102;-71
2023/03/20 03:06:28;;;;;;;21.65;8.77;;;7.40;99.90;;;;;;5079454;28;20037;-70
2023/03/20 03:09:03;;;;;;;25.48;8.38;;;7.50;99.90;;;;;;5079019;28;20186;-70
2023/03/20 03:11:33;;;;;;;23.23;9.05;;;7.50;99.90;;;;;;5090833;28;20040;-70
2023/03/20 03:14:00;;;;;;;21.83;8.50;;;7.50;99.90;;;;;;5078018;28;20045;-70
2023/03/20 03:16:35;;;;;;;22.70;8.98;;;7.50;99.90;;;;;;5077040;28;20044;-70
2023/03/20 03:19:08;;;;;;;21.17;9.00;;;7.50;99.90;;;;;;5078169;28;20040;-69
2023/03/20 03:21:37;;;;;;;24.25;8.65;;;7.50;99.90;;;;;;5081284;28;20402;-70
2023/03/20 03:24:03;;;;;;;18.73;8.35;;;7.50;99.90;;;;;;5074390;28;20121;-70
2023/03/20 03:26:33;;;;;;;21.90;8.90;;;7.50;99.90;;;;;;5078642;28;20545;-70
2023/03/20 03:29:08;;;;;;;17.60;8.95;;;7.50;99.90;;;;;;5075655;28;20082;-70
2023/03/20 03:31:36;;;;;;;18.05;8.18;;;7.60;99.90;;;;;;5073622;28;20486;-71
2023/03/20 03:34:03;;;;;;;14.45;7.97;;;7.60;99.90;;;;;;5087624;28;20497;-71
2023/03/20 03:36:34;;;;;;;20.98;9.52;;;7.50;99.90;;;;;;5081804;28;20036;-71
2023/03/20 03:39:03;;;;;;;23.45;8.38;;;7.50;99.90;;;;;;5076225;28;20168;-71
2023/03/20 03:41:32;;;;;;;23.85;9.48;;;7.50;99.90;;;;;;5076783;28;20520;-70
2023/03/20 03:44:12;;;;;;;19.90;7.97;;;7.50;99.90;;;;;;5086223;28;20032;-70
2023/03/20 03:46:45;;;;;;;20.02;8.95;;;7.50;99.90;;;;;;5055784;28;20392;-71
2023/03/20 03:49:17;;;;;;;23.90;10.32;;;7.60;99.90;;;;;;5073445;28;20049;-70
2023/03/20 03:51:47;;;;;;;23.10;9.45;;;7.50;99.90;;;;;;5078231;28;20418;-70
2023/03/20 03:54:22;;;;;;;19.23;9.15;;;7.60;99.90;;;;;;5088166;28;20416;-70
2023/03/20 03:56:49;;;;;;;16.35;8.75;;;7.50;99.90;;;;;;5079675;28;20141;-70
2023/03/20 03:59:29;;;;;;;25.75;9.80;;;7.50;99.90;;;;;;5073031;28;20394;-70
2023/03/20 04:01:56;;;;;;;16.85;8.98;;;7.60;99.90;;;;;;5075826;28;20040;-70
2023/03/20 04:04:24;;;;;;;22.27;9.85;;;7.60;99.90;;;;;;5073690;28;20070;-71
2023/03/20 04:06:50;;;;;;;;;;;7.50;99.90;;;;;;5073356;28;20045;-70
2023/03/20 04:09:15;;;;;;;20.83;9.07;;;7.60;99.90;;;;;;5078681;28;19927;-71
2023/03/20 04:11:42;;;;;;;20.92;9.15;;;7.60;99.90;;;;;;5094145;28;20043;-70
2023/03/20 04:14:08;;;;;;;21.70;9.38;;;7.60;99.90;;;;;;5077083;28;20071;-70
2023/03/20 04:16:33;;;;;;;21.80;9.60;;;7.60;99.90;;;;;;5093750;28;20409;-70
2023/03/20 04:18:59;;;;;;;20.77;10.00;;;7.60;99.90;;;;;;5082904;28;21406;-70
2023/03/20 04:21:25;;;;;;;16.67;8.85;;;7.80;99.90;;;;;;5089544;28;20043;-70
2023/03/20 04:23:50;;;;;;;19.25;8.13;;;7.50;99.90;;;;;;5080633;28;20128;-70
2023/03/20 04:26:16;;;;;;;23.95;9.50;;;7.60;99.90;;;;;;5075079;28;20086;-70
2023/03/20 04:28:42;;;;;;;18.70;8.90;;;7.60;99.90;;;;;;5071656;28;20381;-70
2023/03/20 04:31:07;;;;;;;22.52;8.98;;;7.70;99.90;;;;;;5073637;28;20052;-71
2023/03/20 04:33:33;;;;;;;15.43;8.10;;;7.60;99.90;;;;;;5083876;28;20438;-70
2023/03/20 04:35:59;;;;;;;16.75;8.00;;;7.70;99.90;;;;;;5078141;28;20039;-71
2023/03/20 04:38:25;;;;;;;15.32;8.60;;;7.60;99.90;;;;;;5073233;28;20111;-71
2023/03/20 04:40:51;;;;;;;15.35;8.27;;;7.60;99.90;;;;;;5080937;28;20066;-71
2023/03/20 04:43:16;;;;;;;17.00;8.25;;;7.60;99.90;;;;;;5074225;28;20044;-71
2023/03/20 04:45:42;;;;;;;19.77;8.75;;;7.60;99.90;;;;;;5077247;28;20036;-70
2023/03/20 04:48:08;;;;;;;14.30;7.93;;;7.60;99.90;;;;;;5080634;28;20036;-71
2023/03/20 04:50:34;;;;;;;14.25;8.10;;;7.70;99.90;;;;;;5072977;28;20051;-71
2023/03/20 04:52:59;;;;;;;21.38;9.35;;;7.60;99.90;;;;;;5084696;28;20207;-71
2023/03/20 04:55:25;;;;;;;20.42;9.25;;;7.60;99.90;;;;;;5079636;28;20047;-71
2023/03/20 04:57:51;;;;;;;15.32;8.02;;;7.50;99.90;;;;;;5074899;28;20036;-69
2023/03/20 05:00:17;;;;;;;22.55;10.55;;;7.60;99.90;;;;;;5074387;28;20039;-71
2023/03/20 05:02:43;;;;;;;20.38;9.70;;;7.50;99.90;;;;;;5077721;28;20043;-70
2023/03/20 05:05:09;;;;;;;17.48;9.30;;;7.50;99.90;;;;;;5076493;28;20827;-70
2023/03/20 05:07:35;;;;;;;22.05;9.77;;;7.60;99.90;;;;;;5080101;28;20090;-71
2023/03/20 05:10:02;;;;;;;20.45;9.13;;;7.60;99.90;;;;;;5088654;28;20040;-70
2023/03/20 05:12:28;;;;;;;15.77;9.47;;;7.60;99.90;;;;;;5082376;28;20420;-70
2023/03/20 05:14:54;;;;;;;20.13;9.63;;;7.50;99.90;;;;;;5078996;28;20037;-70
2023/03/20 05:17:20;;;;;;;15.38;9.77;;;7.60;99.90;;;;;;5075611;28;20031;-70
2023/03/20 05:19:46;;;;;;;20.05;9.85;;;7.60;99.90;;;;;;5082987;28;20431;-71
2023/03/20 05:22:12;;;;;;;21.55;9.35;;;7.60;99.90;;;;;;5073521;28;20032;-71
2023/03/20 05:24:38;;;;;;;23.00;9.90;;;7.60;99.90;;;;;;5092683;28;20504;-71
2023/03/20 05:27:04;;;;;;;23.13;9.52;;;7.60;99.90;;;;;;5078345;28;20067;-70
2023/03/20 05:29:29;;;;;;;23.58;9.40;;;7.60;99.90;;;;;;5071816;28;20460;-70
2023/03/20 05:31:55;;;;;;;15.80;9.18;;;7.60;99.90;;;;;;5089921;28;20036;-70
2023/03/20 05:34:21;;;;;;;16.98;9.85;;;7.60;99.90;;;;;;5090974;28;20033;-71
2023/03/20 05:36:47;;;;;;;19.15;9.50;;;7.60;99.90;;;;;;5081732;28;20120;-70
2023/03/20 05:39:12;;;;;;;19.23;9.80;;;7.60;99.90;;;;;;5084523;28;20480;-70
2023/03/20 05:41:38;;;;;;;22.05;10.50;;;7.60;99.90;;;;;;5083861;28;20192;-71
2023/03/20 05:44:04;;;;;;;17.05;9.73;;;7.60;99.90;;;;;;5077252;28;20048;-70
2023/03/20 05:46:30;;;;;;;21.00;9.60;;;7.60;99.90;;;;;;5090793;28;20415;-70
2023/03/20 05:48:55;;;;;;;22.13;8.98;;;8.00;99.90;;;;;;5074186;28;20035;-70
2023/03/20 05:51:21;;;;;;;20.38;9.30;;;7.60;99.90;;;;;;5085863;28;20048;-70
2023/03/20 05:53:47;;;;;;;18.08;9.05;;;7.50;99.90;;;;;;5078226;28;20245;-70
2023/03/20 05:56:12;;;;;;;24.02;9.23;;;7.70;99.90;;;;;;5076800;28;20098;-70
2023/03/20 05:58:38;;;;;;;16.20;9.23;;;7.50;99.90;;;;;;5081049;28;20044;-70
2023/03/20 06:01:04;;;;;;;21.15;9.30;;;7.60;99.90;;;;;;5079056;28;20287;-70
2023/03/20 06:03:29;;;;;;;18.95;8.45;;;7.60;99.90;;;;;;5081942;28;20054;-71
2023/03/20 06:05:55;;;;;;;15.48;8.52;;;7.60;99.90;;;;;;5074190;28;20043;-70
2023/03/20 06:08:21;;;;;;;21.10;9.13;;;7.60;99.90;;;;;;5080201;28;20060;-69
2023/03/20 06:10:50;;;;;;;17.77;8.35;;;7.60;99.90;;;;;;5086734;28;20040;-70
2023/03/20 06:13:16;;;;;;;15.43;8.98;;;7.60;99.90;;;;;;5087285;28;20501;-70
2023/03/20 06:15:42;;;;;;;18.63;9.15;;;7.60;99.90;;;;;;5089943;28;20061;-70
2023/03/20 06:18:07;;;;;;;17.85;9.38;;;7.60;99.90;;;;;;5080362;28;20035;-70
2023/03/20 06:20:33;;;;;;;17.27;9.07;;;7.60;99.90;;;;;;5080344;28;20140;-70
2023/03/20 06:22:59;;;;;;;19.67;9.98;;;7.60;99.90;;;;;;5081861;28;20048;-70
2023/03/20 06:25:27;;;;;;;17.73;8.93;;;7.60;99.90;;;;;;5091662;28;20044;-69
2023/03/20 06:27:53;;;;;;;22.17;9.15;;;7.70;99.90;;;;;;5076356;28;20043;-69
2023/03/20 06:30:19;;;;;;;20.92;9.75;;;7.70;99.90;;;;;;5076631;28;20080;-69
2023/03/20 06:32:45;;;;;;;22.08;10.00;;;7.70;99.90;;;;;;5075948;28;20032;-70
2023/03/20 06:35:11;;;;;;;15.10;9.05;;;7.70;99.90;;;;;;5079296;28;20245;-70
2023/03/20 06:37:37;;;;;;;17.70;9.25;;;7.70;99.90;;;;;;5081008;28;20044;-70
2023/03/20 06:40:04;;;;;;;20.33;10.13;;;7.80;99.90;;;;;;5077412;28;20428;-70
2023/03/20 06:42:29;;;;;;;19.25;9.30;;;7.80;99.90;;;;;;5085869;28;20490;-70
2023/03/20 06:44:55;;;;;;;16.38;8.73;;;7.80;99.90;;;;;;5085563;28;20051;-71
2023/03/20 06:47:21;;;;;;;18.83;9.40;;;7.80;99.90;;;;;;5095867;28;20028;-71
2023/03/20 06:49:47;;;;;;;17.67;9.43;;;7.80;99.90;;;;;;5075354;28;20493;-71
2023/03/20 06:52:18;;;;;;;24.90;10.07;;;7.80;99.90;;;;;;5081994;28;20043;-71
2023/03/20 06:54:44;;;;;;;19.95;9.93;;;7.80;99.90;;;;;;5079165;28;20047;-72
2023/03/20 06:57:10;;;;;;;17.20;9.65;;;7.90;99.90;;;;;;5079579;28;20040;-71
2023/03/20 06:59:36;;;;;;;18.90;9.63;;;8.10;99.90;;;;;;5079469;28;20480;-70
2023/03/20 07:02:03;;;;;;;20.27;9.93;;;7.90;99.90;;;;;;5080797;28;20040;-71
2023/03/20 07:04:28;;;;;;;23.27;10.48;;;7.90;99.90;;;;;;5085308;28;20052;-70
2023/03/20 07:06:55;;;;;;;16.25;9.93;;;8.00;99.90;;;;;;5072329;28;20051;-70
2023/03/20 07:09:21;;;;;;;17.05;9.45;;;8.00;99.90;;;;;;5079682;28;20095;-71
2023/03/20 07:11:47;;;;;;;18.17;9.90;;;8.10;99.90;;;;;;5083725;28;20128;-70
2023/03/20 07:14:13;;;;;;;17.25;9.38;;;8.10;99.90;;;;;;5080517;28;20048;-70
2023/03/20 07:16:39;;;;;;;18.90;9.10;;;8.10;99.90;;;;;;5086521;28;20048;-70
2023/03/20 07:19:05;;;;;;;16.05;10.13;;;8.10;99.90;;;;;;5079163;28;20050;-71
2023/03/20 07:21:31;;;;;;;19.02;10.00;;;8.20;99.90;;;;;;5081401;28;20041;-70
2023/03/20 07:23:56;;;;;;;22.20;10.52;;;8.20;99.90;;;;;;5080453;28;20033;-70
2023/03/20 07:26:22;;;;;;;16.92;9.70;;;8.30;99.90;;;;;;5088565;28;20070;-70
2023/03/20 07:28:48;;;;;;;23.98;10.63;;;8.40;99.90;;;;;;5093165;28;20445;-71
2023/03/20 07:31:21;;;;;;;19.92;9.88;;;8.40;99.90;;;;;;5081558;28;20565;-71
2023/03/20 07:33:47;;;;;;;19.00;9.85;;;8.50;99.90;;;;;;5091987;28;20475;-71
2023/03/20 07:36:13;;;;;;;21.30;10.68;;;8.60;99.90;;;;;;5093142;28;20119;-71
2023/03/20 07:38:38;;;;;;;22.95;11.57;;;8.60;99.90;;;;;;5085392;28;20036;-71
2023/03/20 07:41:04;;;;;;;17.83;9.20;;;8.70;99.90;;;;;;5093298;28;20128;-70
2023/03/20 07:43:30;;;;;;;16.75;10.63;;;8.80;99.90;;;;;;5091700;28;20044;-70
2023/03/20 07:45:55;;;;;;;22.30;10.38;;;8.90;99.90;;;;;;5077191;28;20044;-70
2023/03/20 07:48:21;;;;;;;17.33;8.60;;;8.90;99.90;;;;;;5076723;28;20041;-71
2023/03/20 07:50:47;;;;;;;26.13;11.10;;;8.90;99.90;;;;;;5088579;28;20098;-72
2023/03/20 07:53:12;;;;;;;18.73;10.02;;;8.90;99.90;;;;;;5055507;28;20109;-71
2023/03/20 07:55:38;;;;;;;21.77;10.40;;;9.00;99.90;;;;;;5077468;28;20044;-70
2023/03/20 07:58:04;;;;;;;21.38;10.13;;;8.90;99.90;;;;;;5085281;28;20056;-71
2023/03/20 08:00:30;;;;;;;23.10;10.07;;;8.90;99.90;;;;;;5090778;28;20056;-71
2023/03/20 08:02:56;;;;;;;18.48;10.27;;;9.00;99.90;;;;;;5075163;28;20040;-73
2023/03/20 08:05:22;;;;;;;16.75;9.38;;;9.10;99.90;;;;;;5074923;28;20473;-71
2023/03/20 08:07:48;;;;;;;21.23;10.48;;;9.20;99.90;;;;;;5073242;28;20045;-72
2023/03/20 08:10:13;;;;;;;17.33;10.15;;;9.30;99.90;;;;;;5078082;28;20048;-73
2023/03/20 08:12:39;;;;;;;17.83;9.65;;;9.30;99.90;;;;;;5083908;28;20067;-72
2023/03/20 08:15:05;;;;;;;19.40;10.95;;;9.40;99.90;;;;;;5074373;28;20406;-71
2023/03/20 08:17:31;;;;;;;17.35;9.63;;;9.40;99.90;;;;;;5083027;28;20076;-71
2023/03/20 08:19:56;;;;;;;20.33;10.10;;;9.40;99.90;;;;;;5087421;28;20402;-71
2023/03/20 08:22:22;;;;;;;21.48;11.07;;;9.30;99.90;;;;;;5075284;28;20040;-71
2023/03/20 08:24:48;;;;;;;22.08;10.52;;;9.30;99.90;;;;;;5064934;28;20070;-71
2023/03/20 08:27:13;;;;;;;21.05;12.05;;;9.20;99.90;;;;;;5091049;28;20040;-71
2023/03/20 08:29:39;;;;;;;19.25;10.80;;;9.30;99.90;;;;;;5089510;28;20108;-71
2023/03/20 08:32:05;;;;;;;22.17;11.13;;;9.20;99.90;;;;;;5075286;28;20044;-71
2023/03/20 08:34:32;;;;;;;20.40;10.25;;;9.30;99.90;;;;;;5071816;28;20094;-71
2023/03/20 08:36:58;;;;;;;20.75;10.63;;;9.20;99.90;;;;;;5076563;28;20040;-71
2023/03/20 08:39:23;;;;;;;20.60;10.15;;;9.20;99.90;;;;;;5090003;28;20090;-71
2023/03/20 08:41:49;;;;;;;21.42;10.27;;;9.30;99.90;;;;;;5082101;28;20033;-71
2023/03/20 08:44:15;;;;;;;21.70;10.65;;;9.30;99.90;;;;;;5076371;28;20033;-71
2023/03/20 08:46:42;;;;;;;21.58;10.25;;;9.30;99.90;;;;;;5079604;28;20062;-70
2023/03/20 08:49:08;;;;;;;23.50;10.23;;;9.30;99.90;;;;;;5091048;28;20127;-71
2023/03/20 08:51:34;;;;;;;19.88;10.00;;;9.30;99.90;;;;;;5078535;28;20139;-71
2023/03/20 08:53:59;;;;;;;23.67;10.30;;;9.40;99.90;;;;;;5084455;28;20139;-70
2023/03/20 08:56:25;;;;;;;24.63;11.00;;;9.40;99.90;;;;;;5081387;28;20424;-71
2023/03/20 08:58:52;;;;;;;20.85;9.68;;;9.60;99.90;;;;;;5072167;28;20043;-72
2023/03/20 09:01:18;;;;;;;21.40;9.73;;;9.70;99.90;;;;;;5071887;28;20145;-71
2023/03/20 09:03:44;;;;;;;20.52;9.60;;;9.80;99.90;;;;;;5080548;28;20037;-70
2023/03/20 09:06:10;;;;;;;28.65;11.55;;;9.90;99.90;;;;;;5077657;28;20032;-72
2023/03/20 09:08:36;;;;;;;17.15;9.77;;;9.90;99.90;;;;;;5071884;28;20044;-72
2023/03/20 09:11:02;;;;;;;23.42;10.32;;;10.00;99.90;;;;;;5083268;28;20127;-72
2023/03/20 09:13:27;;;;;;;21.00;10.25;;;10.10;99.90;;;;;;5084634;28;20044;-71
2023/03/20 09:15:55;;;;;;;24.52;11.13;;;10.30;99.90;;;;;;5072812;28;20391;-71
2023/03/20 09:18:21;;;;;;;19.67;9.50;;;10.40;99.90;;;;;;5073099;28;20147;-72
2023/03/20 09:20:47;;;;;;;16.70;9.23;;;10.60;99.90;;;;;;5072420;28;20741;-72
2023/03/20 09:23:13;;;;;;;20.55;9.38;;;10.70;99.90;;;;;;5082967;28;20112;-71
2023/03/20 09:25:38;;;;;;;19.25;9.55;;;10.90;99.90;;;;;;5091538;28;20048;-71
2023/03/20 09:28:04;;;;;;;18.42;9.00;;;10.80;99.90;;;;;;5076420;28;20484;-72
2023/03/20 09:30:30;;;;;;;18.98;9.68;;;10.90;99.90;;;;;;5077225;28;20033;-71
2023/03/20 09:32:55;;;;;;;18.17;9.18;;;10.90;99.90;;;;;;5071575;28;20049;-71
2023/03/20 09:35:21;;;;;;;19.23;9.82;;;11.00;99.90;;;;;;5071491;28;20131;-72
2023/03/20 09:37:47;;;;;;;17.45;8.82;;;11.10;99.90;;;;;;5080107;28;20048;-72
2023/03/20 09:40:24;;;;;;;17.42;8.95;;;11.00;99.90;;;;;;5075357;28;20047;-72
2023/03/20 09:42:53;;;;;;;16.23;8.45;;;11.10;99.90;;;;;;5086984;28;20120;-73
2023/03/20 09:45:43;;;;;;;15.40;7.97;;;11.00;99.90;;;;;;5075666;28;20053;-72
2023/03/20 09:48:32;;;;;;;22.88;9.05;;;11.00;99.90;;;;;;5067713;28;20083;-72
2023/03/20 09:51:06;;;;;;;17.77;7.45;;;11.00;99.90;;;;;;5072482;28;20048;-73
2023/03/20 09:53:42;;;;;;;17.48;8.00;;;11.00;99.90;;;;;;5085825;28;20048;-73
2023/03/20 09:56:18;;;;;;;19.67;9.13;;;11.10;99.90;;;;;;5078634;28;20434;-73
2023/03/20 09:58:50;;;;;;;15.98;8.80;;;11.20;99.90;;;;;;5091111;28;20214;-73
2023/03/20 10:01:18;;;;;;;24.27;9.57;;;11.20;99.90;;;;;;5071240;28;20048;-73
2023/03/20 10:03:55;;;;;;;16.60;8.63;;;11.30;99.90;;;;;;5070642;28;20508;-73
2023/03/20 10:06:21;;;;;;;17.50;8.75;;;11.30;99.90;;;;;;5078213;28;20489;-73
2023/03/20 10:08:47;;;;;;;19.83;8.93;;;11.30;99.90;;;;;;5089688;28;20044;-73
2023/03/20 10:11:22;;;;;;;20.88;9.75;;;11.40;99.90;;;;;;5081064;28;20037;-73
2023/03/20 10:13:52;;;;;;;17.60;8.02;;;11.40;99.90;;;;;;5068934;28;20127;-74
2023/03/20 10:16:35;;;;;;;15.73;7.90;;;11.50;99.90;;;;;;5082949;28;20059;-73
2023/03/20 10:19:26;;;;;;;24.08;8.88;;;11.60;99.90;;;;;;5074803;28;20128;-73
2023/03/20 10:22:13;;;;;;;20.73;9.13;;;11.60;99.90;;;;;;5120613;27;20026;-72
2023/03/20 10:24:45;;;;;;;19.50;8.70;;;11.60;99.90;;;;;;5152190;27;20047;-72
2023/03/20 10:27:24;;;;;;;16.55;9.07;;;11.80;99.90;;;;;;5116299;27;20040;-72
2023/03/20 10:30:00;;;;;;;;;;;11.80;99.90;;;;;;5111895;28;20047;-72
2023/03/20 10:32:41;;;;;;;20.60;8.82;;;11.90;99.90;;;;;;5111204;28;19928;-72
2023/03/20 10:35:25;;;;;;;20.02;8.52;;;11.80;99.90;;;;;;5118677;28;20386;-72
2023/03/20 10:38:12;;;;;;;17.35;7.72;;;11.70;99.90;;;;;;5111872;28;20047;-72
2023/03/20 10:40:41;;;;;;;20.33;8.13;;;11.70;99.90;;;;;;5114612;28;20051;-72
2023/03/20 10:43:42;;;;;;;16.50;7.78;;;11.50;99.90;;;;;;5106411;28;20043;-72
2023/03/20 10:46:18;;;;;;;23.95;9.10;;;11.40;99.90;;;;;;5064592;28;20045;-72
2023/03/20 10:49:14;;;;;;;18.60;7.95;;;11.40;99.90;;;;;;5123224;27;20489;-72
2023/03/20 10:51:52;;;;;;;20.02;7.25;;;11.50;99.90;;;;;;5128522;27;20130;-71
2023/03/20 10:54:24;;;;;;;14.52;6.65;;;11.70;99.90;;;;;;5129648;27;20122;-72
2023/03/20 10:56:54;;;;;;;18.73;7.93;;;12.00;99.90;;;;;;5124481;27;20035;-71
2023/03/20 10:59:31;;;;;;;21.50;8.48;;;12.10;99.90;;;;;;5126262;27;20123;-71
2023/03/20 11:01:57;;;;;;;19.15;7.55;;;12.10;99.90;;;;;;5134866;27;20043;-71
2023/03/20 11:04:23;;;;;;;15.10;7.65;;;12.20;99.90;;;;;;5155935;27;20049;-71
2023/03/20 11:06:56;;;;;;;19.48;7.28;;;12.10;99.90;;;;;;5123817;27;20055;-71
2023/03/20 11:09:25;;;;;;;17.83;7.32;;;12.00;99.90;;;;;;5126557;27;20039;-71
2023/03/20 11:11:55;;;;;;;17.52;8.07;;;12.00;99.90;;;;;;5134391;27;20177;-71
2023/03/20 11:14:26;;;;;;;14.80;7.47;;;11.90;99.90;;;;;;5135258;27;20078;-71
2023/03/20 11:17:00;;;;;;;16.38;7.05;;;11.80;99.90;;;;;;5121928;27;20504;-71
2023/03/20 11:19:26;;;;;;;19.45;6.80;;;11.70;99.90;;;;;;5128528;27;20046;-71
2023/03/20 11:21:59;;;;;;;18.83;6.40;;;11.70;99.90;;;;;;5129728;27;20039;-70
2023/03/20 11:24:44;;;;;;;18.77;7.15;;;11.60;99.90;;;;;;5115298;27;20063;-71
2023/03/20 11:27:17;;;;;;;16.90;6.95;;;11.50;99.90;;;;;;5097236;27;20050;-71
2023/03/20 11:29:48;;;;;;;18.02;7.30;;;11.40;99.90;;;;;;5122961;27;20093;-71
2023/03/20 11:32:48;;;;;;;19.83;6.93;;;11.30;99.90;;;;;;5122920;27;20167;-71
2023/03/20 11:35:24;;;;;;;21.65;6.93;;;11.30;99.90;;;;;;5073973;28;20052;-71
2023/03/20 11:37:53;;;;;;;20.17;7.25;;;11.20;99.90;;;;;;5098462;27;20055;-72
2023/03/20 11:40:32;;;;;;;15.82;6.38;;;11.30;99.90;;;;;;5114981;27;20051;-72
2023/03/20 11:43:01;;;;;;;17.88;5.78;;;11.30;99.90;;;;;;5115011;27;20051;-72
2023/03/20 11:45:35;;;;;;;15.82;6.05;;;11.20;99.90;;;;;;5151636;27;20047;-71
2023/03/20 11:48:03;;;;;;;12.50;5.55;;;11.10;99.90;;;;;;5127492;27;20031;-72
2023/03/20 11:50:40;;;;;;;13.63;5.97;;;11.10;99.90;;;;;;5116865;27;20051;-71
2023/03/20 11:53:39;;;;;;;16.80;6.13;;;11.00;99.90;;;;;;5130918;27;20050;-71
2023/03/20 11:56:22;;;;;;;13.30;5.28;;;10.90;99.90;;;;;;5115844;27;20384;-72
2023/03/20 11:58:56;;;;;;;15.10;5.50;;;10.90;99.90;;;;;;5137676;27;20044;-72
2023/03/20 12:01:23;;;;;;;15.95;5.25;;;10.80;99.90;;;;;;5119181;27;20043;-72
2023/03/20 12:04:03;;;;;;;16.60;5.88;;;10.70;99.90;;;;;;5115264;27;20395;-72
2023/03/20 12:07:11;;;;;;;15.65;6.45;;;10.70;99.90;;;;;;5125380;27;20039;-72
2023/03/20 12:10:09;;;;;;;11.00;5.53;;;10.70;99.90;;;;;;5129065;27;20043;-72
2023/03/20 12:12:39;;;;;;;14.23;5.68;;;10.70;99.90;;;;;;5121314;27;20047;-72
2023/03/20 12:15:36;;;;;;;17.90;6.55;;;10.60;99.90;;;;;;5118694;27;20495;-71
2023/03/20 12:18:26;;;;;;;12.63;5.10;;;10.50;99.90;;;;;;5129254;27;20055;-71
2023/03/20 12:21:06;;;;;;;11.88;4.82;;;10.50;99.90;;;;;;5122551;27;20039;-72
2023/03/20 12:23:46;;;;;;;11.57;4.85;;;10.40;99.90;;;;;;5126156;27;20046;-71
2023/03/20 12:26:36;;;;;;;10.55;4.43;;;10.40;99.90;;;;;;5137236;27;20039;-71
2023/03/20 12:29:29;;;;;;;10.55;4.43;;;10.30;99.90;;;;;;5136345;27;20042;-70
2023/03/20 12:32:01;;;;;;;10.05;4.43;;;10.30;99.90;;;;;;5123596;27;20093;-70
2023/03/20 12:34:40;;;;;;;17.30;5.32;;;10.20;99.90;;;;;;5120305;27;20559;-72
2023/03/20 12:37:10;;;;;;;9.70;4.40;;;10.20;99.90;;;;;;5118811;27;20147;-71
2023/03/20 12:39:42;;;;;;;10.70;4.15;;;10.20;99.90;;;;;;5132803;27;20047;-70
2023/03/20 12:42:17;;;;;;;8.32;3.78;;;10.20;99.90;;;;;;5123017;27;20039;-72
2023/03/20 12:45:08;;;;;;;8.63;4.65;;;10.20;99.90;;;;;;5131168;27;20164;-71
2023/03/20 12:47:52;;;;;;;9.23;4.07;;;10.20;99.90;;;;;;5111215;27;20134;-71
2023/03/20 12:50:30;;;;;;;10.90;4.40;;;10.20;99.90;;;;;;5122413;27;20097;-72
2023/03/20 12:53:08;;;;;;;12.02;4.43;;;10.10;99.90;;;;;;5113382;27;20055;-71
2023/03/20 12:55:58;;;;;;;9.48;3.83;;;10.20;99.90;;;;;;5123790;27;20043;-72
2023/03/20 12:58:40;;;;;;;6.90;3.30;;;10.40;99.90;;;;;;5116628;27;20081;-71
2023/03/20 13:01:30;;;;;;;9.38;4.00;;;10.10;99.90;;;;;;5132339;27;20082;-71
2023/03/20 13:04:18;;;;;;;9.57;4.13;;;10.00;99.90;;;;;;5122746;27;20039;-71